createdAt,value
2017-06-14T00:00:00.603Z,89.09
2017-06-14T00:00:05.026Z,88.76
2017-06-14T00:00:09.330Z,89.18
2017-06-14T00:00:13.755Z,88.7
2017-06-14T00:00:17.947Z,88.8
2017-06-14T00:00:22.375Z,88.9
2017-06-14T00:00:26.717Z,88.9
2017-06-14T00:00:31.142Z,89.09
2017-06-14T00:00:35.444Z,88.9
2017-06-14T00:00:39.868Z,88.99
2017-06-14T00:00:44.298Z,88.9
2017-06-14T00:00:48.752Z,88.9
2017-06-14T00:00:53.179Z,88.99
2017-06-14T00:00:57.605Z,88.99
2017-06-14T00:01:02.378Z,88.9
2017-06-14T00:01:06.566Z,88.99
2017-06-14T00:01:10.875Z,89.09
2017-06-14T00:01:15.193Z,88.8
2017-06-14T00:01:19.498Z,88.8
2017-06-14T00:01:23.917Z,88.8
2017-06-14T00:01:28.223Z,88.8
2017-06-14T00:01:32.648Z,88.99
2017-06-14T00:01:37.116Z,89.18
2017-06-14T00:01:41.302Z,88.99
2017-06-14T00:01:45.731Z,88.7
2017-06-14T00:01:50.152Z,88.9
2017-06-14T00:01:54.571Z,88.51
2017-06-14T00:01:58.768Z,88.61
2017-06-14T00:02:02.960Z,88.7
2017-06-14T00:02:07.269Z,88.8
2017-06-14T00:02:11.697Z,88.8
2017-06-14T00:02:16.119Z,88.32
2017-06-14T00:02:20.424Z,88.51
2017-06-14T00:02:24.613Z,88.32
2017-06-14T00:02:28.795Z,88.32
2017-06-14T00:02:33.098Z,88.7
2017-06-14T00:02:37.517Z,88.7
2017-06-14T00:02:41.944Z,88.7
2017-06-14T00:02:46.370Z,88.7
2017-06-14T00:02:50.843Z,88.7
2017-06-14T00:02:55.270Z,88.8
2017-06-14T00:02:59.698Z,88.99
2017-06-14T00:03:03.963Z,88.9
2017-06-14T00:03:08.387Z,88.99
2017-06-14T00:03:12.809Z,88.61
2017-06-14T00:03:17.229Z,88.8
2017-06-14T00:03:21.539Z,88.23
2017-06-14T00:03:25.842Z,88.42
2017-06-14T00:03:30.263Z,88.7
2017-06-14T00:03:34.693Z,88.7
2017-06-14T00:03:38.996Z,88.61
2017-06-14T00:03:43.302Z,88.7
2017-06-14T00:03:47.725Z,88.7
2017-06-14T00:03:52.034Z,88.7
2017-06-14T00:03:56.469Z,88.8
2017-06-14T00:04:00.775Z,88.7
2017-06-14T00:04:05.076Z,88.8
2017-06-14T00:04:09.497Z,88.8
2017-06-14T00:04:13.914Z,88.7
2017-06-14T00:04:18.338Z,88.8
2017-06-14T00:04:22.644Z,88.61
2017-06-14T00:04:26.949Z,88.61
2017-06-14T00:04:31.254Z,88.8
2017-06-14T00:04:35.678Z,88.7
2017-06-14T00:04:39.983Z,88.9
2017-06-14T00:04:44.447Z,88.7
2017-06-14T00:04:48.866Z,88.8
2017-06-14T00:04:53.290Z,88.7
2017-06-14T00:04:57.476Z,88.76
2017-06-14T00:05:01.903Z,88.61
2017-06-14T00:05:06.215Z,88.8
2017-06-14T00:05:10.639Z,88.7
2017-06-14T00:05:15.081Z,88.7
2017-06-14T00:05:19.508Z,88.61
2017-06-14T00:05:23.812Z,88.42
2017-06-14T00:05:28.241Z,88.7
2017-06-14T00:05:32.545Z,88.51
2017-06-14T00:05:36.971Z,88.51
2017-06-14T00:05:41.387Z,88.51
2017-06-14T00:05:45.815Z,88.61
2017-06-14T00:05:50.243Z,88.51
2017-06-14T00:05:54.677Z,88.61
2017-06-14T00:05:58.748Z,88.61
2017-06-14T00:06:03.371Z,88.9
2017-06-14T00:06:07.682Z,88.7
2017-06-14T00:06:11.992Z,89.09
2017-06-14T00:06:16.438Z,88.99
2017-06-14T00:06:20.862Z,88.51
2017-06-14T00:06:25.048Z,88.9
2017-06-14T00:06:29.349Z,88.8
2017-06-14T00:06:33.547Z,88.9
2017-06-14T00:06:37.884Z,88.7
2017-06-14T00:06:42.312Z,88.51
2017-06-14T00:06:46.619Z,88.66
2017-06-14T00:06:50.814Z,89.18
2017-06-14T00:06:55.246Z,89.18
2017-06-14T00:06:59.670Z,89.18
2017-06-14T00:07:04.133Z,89.57
2017-06-14T00:07:08.433Z,88.99
2017-06-14T00:07:12.859Z,89.23
2017-06-14T00:07:17.287Z,88.85
2017-06-14T00:07:21.709Z,88.99
2017-06-14T00:07:26.017Z,89.37
2017-06-14T00:07:30.319Z,88.7
2017-06-14T00:07:34.562Z,89.18
2017-06-14T00:07:38.993Z,89.18
2017-06-14T00:07:43.302Z,88.8
2017-06-14T00:07:47.497Z,88.7
2017-06-14T00:07:51.807Z,89.09
2017-06-14T00:07:56.225Z,89.18
2017-06-14T00:08:00.527Z,89.18
2017-06-14T00:08:04.946Z,89.09
2017-06-14T00:08:09.249Z,89.09
2017-06-14T00:08:13.686Z,88.8
2017-06-14T00:08:18.109Z,88.99
2017-06-14T00:08:22.527Z,89.66
2017-06-14T00:08:26.721Z,89.81
2017-06-14T00:08:31.029Z,89.43
2017-06-14T00:08:35.337Z,89.37
2017-06-14T00:08:39.761Z,89.47
2017-06-14T00:08:44.187Z,89.95
2017-06-14T00:08:48.613Z,90.05
2017-06-14T00:08:52.915Z,89.76
2017-06-14T00:08:57.334Z,90.05
2017-06-14T00:09:01.764Z,89.76
2017-06-14T00:09:06.189Z,89.95
2017-06-14T00:09:10.612Z,89.86
2017-06-14T00:09:15.029Z,89.76
2017-06-14T00:09:19.329Z,89.86
2017-06-14T00:09:23.639Z,89.86
2017-06-14T00:09:27.980Z,89.43
2017-06-14T00:09:32.293Z,89.43
2017-06-14T00:09:36.603Z,89.37
2017-06-14T00:09:40.909Z,89.43
2017-06-14T00:09:45.101Z,89.76
2017-06-14T00:09:49.533Z,89.95
2017-06-14T00:09:53.953Z,89.76
2017-06-14T00:09:58.373Z,89.23
2017-06-14T00:10:02.792Z,89.47
2017-06-14T00:10:07.101Z,89.57
2017-06-14T00:10:11.416Z,89.66
2017-06-14T00:10:15.612Z,89.57
2017-06-14T00:10:20.029Z,89.62
2017-06-14T00:10:24.450Z,89.43
2017-06-14T00:10:28.762Z,89.57
2017-06-14T00:10:33.187Z,89.66
2017-06-14T00:10:37.410Z,89.52
2017-06-14T00:10:41.717Z,89.52
2017-06-14T00:10:46.020Z,89.43
2017-06-14T00:10:50.213Z,89.72
2017-06-14T00:10:54.635Z,89.62
2017-06-14T00:10:59.062Z,89.62
2017-06-14T00:11:03.485Z,89.62
2017-06-14T00:11:07.674Z,89.62
2017-06-14T00:11:12.110Z,89.62
2017-06-14T00:11:16.539Z,89.66
2017-06-14T00:11:20.967Z,89.62
2017-06-14T00:11:25.272Z,89.62
2017-06-14T00:11:29.577Z,89.52
2017-06-14T00:11:33.995Z,89.66
2017-06-14T00:11:38.185Z,89.62
2017-06-14T00:11:42.616Z,89.81
2017-06-14T00:11:47.038Z,89.52
2017-06-14T00:11:51.347Z,89.52
2017-06-14T00:11:55.535Z,89.72
2017-06-14T00:11:59.837Z,89.72
2017-06-14T00:12:04.271Z,89.62
2017-06-14T00:12:08.582Z,89.52
2017-06-14T00:12:12.894Z,89.72
2017-06-14T00:12:17.335Z,89.52
2017-06-14T00:12:21.639Z,89.72
2017-06-14T00:12:26.068Z,89.72
2017-06-14T00:12:30.413Z,89.72
2017-06-14T00:12:34.830Z,88.95
2017-06-14T00:12:38.898Z,89.43
2017-06-14T00:12:42.968Z,89.72
2017-06-14T00:12:47.155Z,89.62
2017-06-14T00:12:51.464Z,89.52
2017-06-14T00:12:55.774Z,89.04
2017-06-14T00:13:00.079Z,89.43
2017-06-14T00:13:04.652Z,88.76
2017-06-14T00:13:09.077Z,89.14
2017-06-14T00:13:13.501Z,89.43
2017-06-14T00:13:17.924Z,88.95
2017-06-14T00:13:22.348Z,88.76
2017-06-14T00:13:26.771Z,88.95
2017-06-14T00:13:31.187Z,88.95
2017-06-14T00:13:35.615Z,88.95
2017-06-14T00:13:39.919Z,88.76
2017-06-14T00:13:44.114Z,89.33
2017-06-14T00:13:48.421Z,89.04
2017-06-14T00:13:52.842Z,89.04
2017-06-14T00:13:57.148Z,89.52
2017-06-14T00:14:01.458Z,89.52
2017-06-14T00:14:05.764Z,89.72
2017-06-14T00:14:10.195Z,89.81
2017-06-14T00:14:14.619Z,89.52
2017-06-14T00:14:19.047Z,89.33
2017-06-14T00:14:23.471Z,89.52
2017-06-14T00:14:27.790Z,89.62
2017-06-14T00:14:32.212Z,89.52
2017-06-14T00:14:36.518Z,89.72
2017-06-14T00:14:40.705Z,89.72
2017-06-14T00:14:45.126Z,89.62
2017-06-14T00:14:49.552Z,89.52
2017-06-14T00:14:53.979Z,89.43
2017-06-14T00:14:58.406Z,89.43
2017-06-14T00:15:02.831Z,89.52
2017-06-14T00:15:07.015Z,89.43
2017-06-14T00:15:11.438Z,89.43
2017-06-14T00:15:15.864Z,89.43
2017-06-14T00:15:20.319Z,89.23
2017-06-14T00:15:24.509Z,89.33
2017-06-14T00:15:28.814Z,89.14
2017-06-14T00:15:33.005Z,89.43
2017-06-14T00:15:37.319Z,89.33
2017-06-14T00:15:41.512Z,89.33
2017-06-14T00:15:45.700Z,89.33
2017-06-14T00:15:50.120Z,89.72
2017-06-14T00:15:54.538Z,89.72
2017-06-14T00:15:58.961Z,89.72
2017-06-14T00:16:03.442Z,90.09
2017-06-14T00:16:07.868Z,90.09
2017-06-14T00:16:12.172Z,90
2017-06-14T00:16:16.476Z,90.09
2017-06-14T00:16:20.775Z,90.19
2017-06-14T00:16:25.206Z,90
2017-06-14T00:16:29.671Z,90.09
2017-06-14T00:16:33.972Z,90
2017-06-14T00:16:38.393Z,90.58
2017-06-14T00:16:42.695Z,90.58
2017-06-14T00:16:46.883Z,90.39
2017-06-14T00:16:51.315Z,90.48
2017-06-14T00:16:55.624Z,90.67
2017-06-14T00:17:00.050Z,90.58
2017-06-14T00:17:04.237Z,90.58
2017-06-14T00:17:08.553Z,90.39
2017-06-14T00:17:12.988Z,90.39
2017-06-14T00:17:17.176Z,90.67
2017-06-14T00:17:21.597Z,90.29
2017-06-14T00:17:26.018Z,90.29
2017-06-14T00:17:30.440Z,90.86
2017-06-14T00:17:34.626Z,90.86
2017-06-14T00:17:38.969Z,90.58
2017-06-14T00:17:43.157Z,90.67
2017-06-14T00:17:47.340Z,90.77
2017-06-14T00:17:51.759Z,90.86
2017-06-14T00:17:56.065Z,90.86
2017-06-14T00:18:00.372Z,91.05
2017-06-14T00:18:04.766Z,91.15
2017-06-14T00:18:08.954Z,91.05
2017-06-14T00:18:13.254Z,91.15
2017-06-14T00:18:17.676Z,91.15
2017-06-14T00:18:21.994Z,91.15
2017-06-14T00:18:26.423Z,91.05
2017-06-14T00:18:30.844Z,90.96
2017-06-14T00:18:35.033Z,91.15
2017-06-14T00:18:39.223Z,91.44
2017-06-14T00:18:43.525Z,91.53
2017-06-14T00:18:47.949Z,92.11
2017-06-14T00:18:52.369Z,91.72
2017-06-14T00:18:56.791Z,91.63
2017-06-14T00:19:01.089Z,91.53
2017-06-14T00:19:05.275Z,91.82
2017-06-14T00:19:09.705Z,91.53
2017-06-14T00:19:14.157Z,91.72
2017-06-14T00:19:18.577Z,91.63
2017-06-14T00:19:22.886Z,91.82
2017-06-14T00:19:27.307Z,91.72
2017-06-14T00:19:31.732Z,91.82
2017-06-14T00:19:35.923Z,91.63
2017-06-14T00:19:40.236Z,91.72
2017-06-14T00:19:44.544Z,92.01
2017-06-14T00:19:48.853Z,92.3
2017-06-14T00:19:53.274Z,91.82
2017-06-14T00:19:57.573Z,91.92
2017-06-14T00:20:01.929Z,92.01
2017-06-14T00:20:06.240Z,91.92
2017-06-14T00:20:10.541Z,92.01
2017-06-14T00:20:14.972Z,92.01
2017-06-14T00:20:19.396Z,91.82
2017-06-14T00:20:23.823Z,92.01
2017-06-14T00:20:28.247Z,92.01
2017-06-14T00:20:32.670Z,92.01
2017-06-14T00:20:36.976Z,92.11
2017-06-14T00:20:41.402Z,92.3
2017-06-14T00:20:45.711Z,92.01
2017-06-14T00:20:50.169Z,92.3
2017-06-14T00:20:54.475Z,92.4
2017-06-14T00:20:58.895Z,92.49
2017-06-14T00:21:03.319Z,92.11
2017-06-14T00:21:07.741Z,92.3
2017-06-14T00:21:12.169Z,92.21
2017-06-14T00:21:16.594Z,92.58
2017-06-14T00:21:21.017Z,92.58
2017-06-14T00:21:25.437Z,92.58
2017-06-14T00:21:29.740Z,92.68
2017-06-14T00:21:34.048Z,92.58
2017-06-14T00:21:38.386Z,92.49
2017-06-14T00:21:42.805Z,92.58
2017-06-14T00:21:46.990Z,92.4
2017-06-14T00:21:51.181Z,92.49
2017-06-14T00:21:55.494Z,92.49
2017-06-14T00:21:59.952Z,92.58
2017-06-14T00:22:04.372Z,92.49
2017-06-14T00:22:08.560Z,92.68
2017-06-14T00:22:12.985Z,92.68
2017-06-14T00:22:17.410Z,92.68
2017-06-14T00:22:21.845Z,92.49
2017-06-14T00:22:26.278Z,92.78
2017-06-14T00:22:30.464Z,92.78
2017-06-14T00:22:34.888Z,92.58
2017-06-14T00:22:39.080Z,92.78
2017-06-14T00:22:43.396Z,92.87
2017-06-14T00:22:47.707Z,92.78
2017-06-14T00:22:52.132Z,93.35
2017-06-14T00:22:56.558Z,93.16
2017-06-14T00:23:00.985Z,93.26
2017-06-14T00:23:05.562Z,93.16
2017-06-14T00:23:09.988Z,93.16
2017-06-14T00:23:14.410Z,93.16
2017-06-14T00:23:18.834Z,93.16
2017-06-14T00:23:23.252Z,92.97
2017-06-14T00:23:27.442Z,93.07
2017-06-14T00:23:31.871Z,92.97
2017-06-14T00:23:36.178Z,92.87
2017-06-14T00:23:40.606Z,93.26
2017-06-14T00:23:45.030Z,93.26
2017-06-14T00:23:49.453Z,93.16
2017-06-14T00:23:53.801Z,93.26
2017-06-14T00:23:58.237Z,93.26
2017-06-14T00:24:02.741Z,92.97
2017-06-14T00:24:07.164Z,93.07
2017-06-14T00:24:11.584Z,93.16
2017-06-14T00:24:15.899Z,93.07
2017-06-14T00:24:20.121Z,93.16
2017-06-14T00:24:24.547Z,93.16
2017-06-14T00:24:28.974Z,93.35
2017-06-14T00:24:33.392Z,93.54
2017-06-14T00:24:37.819Z,93.45
2017-06-14T00:24:42.248Z,93.45
2017-06-14T00:24:46.557Z,93.54
2017-06-14T00:24:50.745Z,93.64
2017-06-14T00:24:55.170Z,93.35
2017-06-14T00:24:59.590Z,93.64
2017-06-14T00:25:03.904Z,93.64
2017-06-14T00:25:08.218Z,93.16
2017-06-14T00:25:12.649Z,93.45
2017-06-14T00:25:17.090Z,93.54
2017-06-14T00:25:21.396Z,93.35
2017-06-14T00:25:25.590Z,93.45
2017-06-14T00:25:30.014Z,93.45
2017-06-14T00:25:34.432Z,93.64
2017-06-14T00:25:38.851Z,93.54
2017-06-14T00:25:43.154Z,93.45
2017-06-14T00:25:47.581Z,93.45
2017-06-14T00:25:51.776Z,93.45
2017-06-14T00:25:56.197Z,93.16
2017-06-14T00:26:00.619Z,93.54
2017-06-14T00:26:04.812Z,93.54
2017-06-14T00:26:09.239Z,93.45
2017-06-14T00:26:13.664Z,93.16
2017-06-14T00:26:17.975Z,93.93
2017-06-14T00:26:22.277Z,94.02
2017-06-14T00:26:26.700Z,94.21
2017-06-14T00:26:31.120Z,93.83
2017-06-14T00:26:35.545Z,93.93
2017-06-14T00:26:39.983Z,94.12
2017-06-14T00:26:44.170Z,94.12
2017-06-14T00:26:48.597Z,94.31
2017-06-14T00:26:52.783Z,94.4
2017-06-14T00:26:57.209Z,94.31
2017-06-14T00:27:01.636Z,94.31
2017-06-14T00:27:06.084Z,94.4
2017-06-14T00:27:10.270Z,94.31
2017-06-14T00:27:14.686Z,94.31
2017-06-14T00:27:19.110Z,94.12
2017-06-14T00:27:23.542Z,94.4
2017-06-14T00:27:27.965Z,93.93
2017-06-14T00:27:32.391Z,94.31
2017-06-14T00:27:36.813Z,94.12
2017-06-14T00:27:41.234Z,94.02
2017-06-14T00:27:45.658Z,94.31
2017-06-14T00:27:50.095Z,94.31
2017-06-14T00:27:54.398Z,94.4
2017-06-14T00:27:58.817Z,94.5
2017-06-14T00:28:03.425Z,94.4
2017-06-14T00:28:07.845Z,94.31
2017-06-14T00:28:12.154Z,94.4
2017-06-14T00:28:16.576Z,94.31
2017-06-14T00:28:20.998Z,94.31
2017-06-14T00:28:25.425Z,94.31
2017-06-14T00:28:29.846Z,94.31
2017-06-14T00:28:34.270Z,94.12
2017-06-14T00:28:38.701Z,94.5
2017-06-14T00:28:42.890Z,94.5
2017-06-14T00:28:47.190Z,94.31
2017-06-14T00:28:51.373Z,94.12
2017-06-14T00:28:55.792Z,94.21
2017-06-14T00:29:00.099Z,94.12
2017-06-14T00:29:04.823Z,94.31
2017-06-14T00:29:09.247Z,94.02
2017-06-14T00:29:13.669Z,94.12
2017-06-14T00:29:18.092Z,94.79
2017-06-14T00:29:22.515Z,94.69
2017-06-14T00:29:26.981Z,94.79
2017-06-14T00:29:31.401Z,94.69
2017-06-14T00:29:35.821Z,95.17
2017-06-14T00:29:40.126Z,94.69
2017-06-14T00:29:44.550Z,94.89
2017-06-14T00:29:48.854Z,94.79
2017-06-14T00:29:53.285Z,94.89
2017-06-14T00:29:57.595Z,94.79
2017-06-14T00:30:02.167Z,94.98
2017-06-14T00:30:06.466Z,94.79
2017-06-14T00:30:10.667Z,94.69
2017-06-14T00:30:15.123Z,94.98
2017-06-14T00:30:19.549Z,94.69
2017-06-14T00:30:23.969Z,94.89
2017-06-14T00:30:28.401Z,94.93
2017-06-14T00:30:32.825Z,94.98
2017-06-14T00:30:37.257Z,94.98
2017-06-14T00:30:41.571Z,94.69
2017-06-14T00:30:45.878Z,94.79
2017-06-14T00:30:50.181Z,94.69
2017-06-14T00:30:54.132Z,94.89
2017-06-14T00:30:58.438Z,94.79
2017-06-14T00:31:03.071Z,94.79
2017-06-14T00:31:07.497Z,94.79
2017-06-14T00:31:11.918Z,94.79
2017-06-14T00:31:16.340Z,94.69
2017-06-14T00:31:20.775Z,94.79
2017-06-14T00:31:25.238Z,94.89
2017-06-14T00:31:29.658Z,94.79
2017-06-14T00:31:34.082Z,94.79
2017-06-14T00:31:38.498Z,94.79
2017-06-14T00:31:42.802Z,95.07
2017-06-14T00:31:47.107Z,95.07
2017-06-14T00:31:51.415Z,94.98
2017-06-14T00:31:55.601Z,94.79
2017-06-14T00:31:59.907Z,95.07
2017-06-14T00:32:04.222Z,95.07
2017-06-14T00:32:08.653Z,95.07
2017-06-14T00:32:13.076Z,94.98
2017-06-14T00:32:17.495Z,94.89
2017-06-14T00:32:21.800Z,94.69
2017-06-14T00:32:26.223Z,94.79
2017-06-14T00:32:30.651Z,94.69
2017-06-14T00:32:35.083Z,94.79
2017-06-14T00:32:39.505Z,94.79
2017-06-14T00:32:43.697Z,94.79
2017-06-14T00:32:47.879Z,94.89
2017-06-14T00:32:52.070Z,95.07
2017-06-14T00:32:56.377Z,94.89
2017-06-14T00:33:00.721Z,95.07
2017-06-14T00:33:05.290Z,94.89
2017-06-14T00:33:09.711Z,94.69
2017-06-14T00:33:14.134Z,94.69
2017-06-14T00:33:18.561Z,94.89
2017-06-14T00:33:22.985Z,94.98
2017-06-14T00:33:27.407Z,94.79
2017-06-14T00:33:31.832Z,94.98
2017-06-14T00:33:36.252Z,94.98
2017-06-14T00:33:40.671Z,94.55
2017-06-14T00:33:44.867Z,94.69
2017-06-14T00:33:49.056Z,94.89
2017-06-14T00:33:53.359Z,94.89
2017-06-14T00:33:57.547Z,94.69
2017-06-14T00:34:01.967Z,94.69
2017-06-14T00:34:06.391Z,95.07
2017-06-14T00:34:10.823Z,95.27
2017-06-14T00:34:15.244Z,95.17
2017-06-14T00:34:19.667Z,94.89
2017-06-14T00:34:23.853Z,94.98
2017-06-14T00:34:28.282Z,94.69
2017-06-14T00:34:32.590Z,94.74
2017-06-14T00:34:37.010Z,94.74
2017-06-14T00:34:41.317Z,94.69
2017-06-14T00:34:45.746Z,94.98
2017-06-14T00:34:49.814Z,94.79
2017-06-14T00:34:54.010Z,94.98
2017-06-14T00:34:58.321Z,94.89
2017-06-14T00:35:03.049Z,94.89
2017-06-14T00:35:07.357Z,94.69
2017-06-14T00:35:11.781Z,94.5
2017-06-14T00:35:16.204Z,94.89
2017-06-14T00:35:20.669Z,95.17
2017-06-14T00:35:25.091Z,95.17
2017-06-14T00:35:29.398Z,94.89
2017-06-14T00:35:33.703Z,95.17
2017-06-14T00:35:38.006Z,95.07
2017-06-14T00:35:42.434Z,95.07
2017-06-14T00:35:46.867Z,95.07
2017-06-14T00:35:51.067Z,95.03
2017-06-14T00:35:55.488Z,94.36
2017-06-14T00:35:59.914Z,94.79
2017-06-14T00:36:04.333Z,94.79
2017-06-14T00:36:08.787Z,94.89
2017-06-14T00:36:13.220Z,94.6
2017-06-14T00:36:17.661Z,94.89
2017-06-14T00:36:21.962Z,94.89
2017-06-14T00:36:26.391Z,94.69
2017-06-14T00:36:30.850Z,94.98
2017-06-14T00:36:35.276Z,94.98
2017-06-14T00:36:39.584Z,94.98
2017-06-14T00:36:43.779Z,94.89
2017-06-14T00:36:48.201Z,95.07
2017-06-14T00:36:52.516Z,94.69
2017-06-14T00:36:56.826Z,94.89
2017-06-14T00:37:01.128Z,94.45
2017-06-14T00:37:05.433Z,95.12
2017-06-14T00:37:09.732Z,94.98
2017-06-14T00:37:14.156Z,94.89
2017-06-14T00:37:18.620Z,94.89
2017-06-14T00:37:22.814Z,94.84
2017-06-14T00:37:27.234Z,94.98
2017-06-14T00:37:31.663Z,94.79
2017-06-14T00:37:36.084Z,94.69
2017-06-14T00:37:40.510Z,94.69
2017-06-14T00:37:44.823Z,94.69
2017-06-14T00:37:49.244Z,94.79
2017-06-14T00:37:53.543Z,94.84
2017-06-14T00:37:57.854Z,95.07
2017-06-14T00:38:02.156Z,95.07
2017-06-14T00:38:06.581Z,94.79
2017-06-14T00:38:10.541Z,95.07
2017-06-14T00:38:14.961Z,95.17
2017-06-14T00:38:19.386Z,94.98
2017-06-14T00:38:23.689Z,95.36
2017-06-14T00:38:28.110Z,95.36
2017-06-14T00:38:32.542Z,95.36
2017-06-14T00:38:36.965Z,95.07
2017-06-14T00:38:41.268Z,95.07
2017-06-14T00:38:45.572Z,94.79
2017-06-14T00:38:49.998Z,95.07
2017-06-14T00:38:54.310Z,95.07
2017-06-14T00:38:58.764Z,95.17
2017-06-14T00:39:03.184Z,95.41
2017-06-14T00:39:07.601Z,95.27
2017-06-14T00:39:12.020Z,95.07
2017-06-14T00:39:16.450Z,95.27
2017-06-14T00:39:20.872Z,95.03
2017-06-14T00:39:25.181Z,95.36
2017-06-14T00:39:29.604Z,95.75
2017-06-14T00:39:34.029Z,95.65
2017-06-14T00:39:38.338Z,95.75
2017-06-14T00:39:42.769Z,95.94
2017-06-14T00:39:47.075Z,95.94
2017-06-14T00:39:51.496Z,96.03
2017-06-14T00:39:55.682Z,95.84
2017-06-14T00:39:59.870Z,96.03
2017-06-14T00:40:04.071Z,95.94
2017-06-14T00:40:08.501Z,95.75
2017-06-14T00:40:12.928Z,95.94
2017-06-14T00:40:17.114Z,95.65
2017-06-14T00:40:21.418Z,95.27
2017-06-14T00:40:25.607Z,95.46
2017-06-14T00:40:30.030Z,95.46
2017-06-14T00:40:34.454Z,95.36
2017-06-14T00:40:38.871Z,95.46
2017-06-14T00:40:43.298Z,95.75
2017-06-14T00:40:47.607Z,95.84
2017-06-14T00:40:51.799Z,95.84
2017-06-14T00:40:55.991Z,95.36
2017-06-14T00:41:00.416Z,95.75
2017-06-14T00:41:05.089Z,95.75
2017-06-14T00:41:09.513Z,95.94
2017-06-14T00:41:13.945Z,95.94
2017-06-14T00:41:18.369Z,95.94
2017-06-14T00:41:22.796Z,95.75
2017-06-14T00:41:27.215Z,95.75
2017-06-14T00:41:31.638Z,95.36
2017-06-14T00:41:36.061Z,95.36
2017-06-14T00:41:40.520Z,95.17
2017-06-14T00:41:44.944Z,95.65
2017-06-14T00:41:49.247Z,96.03
2017-06-14T00:41:53.312Z,95.56
2017-06-14T00:41:57.611Z,95.65
2017-06-14T00:42:01.802Z,95.56
2017-06-14T00:42:06.003Z,95.65
2017-06-14T00:42:10.073Z,95.84
2017-06-14T00:42:14.491Z,95.31
2017-06-14T00:42:18.799Z,95.36
2017-06-14T00:42:23.225Z,95.75
2017-06-14T00:42:27.650Z,95.46
2017-06-14T00:42:32.071Z,95.46
2017-06-14T00:42:36.497Z,95.65
2017-06-14T00:42:40.803Z,95.94
2017-06-14T00:42:44.870Z,95.75
2017-06-14T00:42:49.179Z,95.65
2017-06-14T00:42:53.603Z,95.75
2017-06-14T00:42:57.791Z,95.75
2017-06-14T00:43:02.301Z,95.31
2017-06-14T00:43:06.603Z,95.36
2017-06-14T00:43:11.030Z,95.65
2017-06-14T00:43:15.456Z,95.31
2017-06-14T00:43:19.877Z,95.46
2017-06-14T00:43:24.182Z,95.36
2017-06-14T00:43:28.611Z,95.22
2017-06-14T00:43:32.922Z,95.17
2017-06-14T00:43:37.403Z,95.12
2017-06-14T00:43:41.828Z,95.27
2017-06-14T00:43:46.246Z,95.07
2017-06-14T00:43:50.666Z,95.51
2017-06-14T00:43:54.970Z,95.36
2017-06-14T00:43:59.283Z,95.36
2017-06-14T00:44:03.595Z,95.41
2017-06-14T00:44:07.901Z,95.51
2017-06-14T00:44:12.324Z,95.46
2017-06-14T00:44:16.739Z,95.46
2017-06-14T00:44:21.057Z,95.17
2017-06-14T00:44:25.525Z,95.75
2017-06-14T00:44:29.950Z,95.94
2017-06-14T00:44:34.387Z,95.07
2017-06-14T00:44:38.814Z,95.46
2017-06-14T00:44:43.235Z,95.75
2017-06-14T00:44:47.701Z,95.41
2017-06-14T00:44:52.006Z,95.46
2017-06-14T00:44:56.314Z,95.22
2017-06-14T00:45:00.744Z,95.75
2017-06-14T00:45:04.943Z,95.51
2017-06-14T00:45:09.254Z,95.75
2017-06-14T00:45:13.715Z,95.7
2017-06-14T00:45:18.024Z,95.65
2017-06-14T00:45:22.443Z,95.36
2017-06-14T00:45:26.746Z,95.46
2017-06-14T00:45:31.170Z,95.03
2017-06-14T00:45:35.598Z,95.07
2017-06-14T00:45:40.018Z,95.27
2017-06-14T00:45:44.321Z,95.22
2017-06-14T00:45:48.747Z,95.22
2017-06-14T00:45:53.175Z,95.27
2017-06-14T00:45:57.629Z,95.17
2017-06-14T00:46:01.936Z,95.31
2017-06-14T00:46:06.126Z,95.46
2017-06-14T00:46:10.201Z,95.31
2017-06-14T00:46:14.623Z,95.22
2017-06-14T00:46:19.067Z,95.75
2017-06-14T00:46:23.370Z,95.17
2017-06-14T00:46:27.674Z,95.17
2017-06-14T00:46:31.976Z,95.17
2017-06-14T00:46:36.399Z,95.41
2017-06-14T00:46:40.826Z,95.22
2017-06-14T00:46:45.251Z,95.03
2017-06-14T00:46:49.562Z,95.03
2017-06-14T00:46:53.986Z,94.93
2017-06-14T00:46:58.282Z,95.07
2017-06-14T00:47:02.703Z,94.98
2017-06-14T00:47:06.894Z,94.89
2017-06-14T00:47:11.202Z,95.22
2017-06-14T00:47:15.626Z,95.03
2017-06-14T00:47:19.935Z,94.93
2017-06-14T00:47:24.355Z,94.84
2017-06-14T00:47:28.777Z,94.93
2017-06-14T00:47:33.206Z,94.84
2017-06-14T00:47:37.392Z,94.65
2017-06-14T00:47:41.814Z,94.93
2017-06-14T00:47:46.238Z,94.84
2017-06-14T00:47:50.536Z,94.65
2017-06-14T00:47:54.852Z,94.65
2017-06-14T00:47:59.040Z,94.65
2017-06-14T00:48:03.463Z,94.65
2017-06-14T00:48:07.884Z,94.79
2017-06-14T00:48:12.185Z,94.93
2017-06-14T00:48:16.609Z,95.12
2017-06-14T00:48:20.944Z,95.03
2017-06-14T00:48:25.366Z,94.93
2017-06-14T00:48:29.789Z,95.31
2017-06-14T00:48:34.209Z,95.12
2017-06-14T00:48:38.514Z,95.03
2017-06-14T00:48:42.942Z,95.03
2017-06-14T00:48:47.249Z,95.22
2017-06-14T00:48:51.313Z,95.31
2017-06-14T00:48:55.497Z,95.31
2017-06-14T00:48:59.798Z,95.12
2017-06-14T00:49:04.153Z,95.17
2017-06-14T00:49:08.588Z,95.12
2017-06-14T00:49:13.010Z,95.31
2017-06-14T00:49:17.433Z,95.07
2017-06-14T00:49:21.738Z,95.46
2017-06-14T00:49:26.165Z,95.61
2017-06-14T00:49:30.607Z,95.79
2017-06-14T00:49:34.914Z,95.7
2017-06-14T00:49:39.336Z,95.51
2017-06-14T00:49:43.640Z,95.98
2017-06-14T00:49:47.826Z,95.7
2017-06-14T00:49:52.291Z,95.61
2017-06-14T00:49:56.603Z,95.41
2017-06-14T00:50:00.908Z,95.98
2017-06-14T00:50:05.428Z,95.89
2017-06-14T00:50:09.619Z,95.98
2017-06-14T00:50:14.058Z,95.75
2017-06-14T00:50:18.486Z,96.27
2017-06-14T00:50:22.907Z,96.18
2017-06-14T00:50:27.325Z,95.51
2017-06-14T00:50:31.749Z,95.41
2017-06-14T00:50:36.181Z,95.51
2017-06-14T00:50:40.517Z,95.79
2017-06-14T00:50:44.948Z,95.98
2017-06-14T00:50:49.257Z,96.56
2017-06-14T00:50:53.557Z,96.37
2017-06-14T00:50:57.977Z,96.37
2017-06-14T00:51:02.607Z,96.37
2017-06-14T00:51:06.911Z,96.27
2017-06-14T00:51:11.215Z,96.56
2017-06-14T00:51:15.539Z,96.08
2017-06-14T00:51:19.961Z,96.47
2017-06-14T00:51:24.385Z,96.56
2017-06-14T00:51:28.723Z,96.47
2017-06-14T00:51:33.153Z,96.47
2017-06-14T00:51:37.580Z,96.75
2017-06-14T00:51:41.882Z,96.37
2017-06-14T00:51:46.303Z,96.27
2017-06-14T00:51:50.618Z,96.66
2017-06-14T00:51:54.965Z,97.23
2017-06-14T00:51:59.158Z,97.04
2017-06-14T00:52:03.662Z,96.75
2017-06-14T00:52:07.850Z,97.23
2017-06-14T00:52:12.039Z,97.13
2017-06-14T00:52:16.232Z,96.94
2017-06-14T00:52:20.420Z,97.04
2017-06-14T00:52:24.839Z,96.94
2017-06-14T00:52:29.264Z,96.94
2017-06-14T00:52:33.689Z,96.84
2017-06-14T00:52:38.116Z,97.13
2017-06-14T00:52:42.545Z,97.13
2017-06-14T00:52:46.729Z,97.23
2017-06-14T00:52:51.156Z,96.94
2017-06-14T00:52:55.578Z,97.23
2017-06-14T00:53:00.013Z,96.94
2017-06-14T00:53:04.438Z,96.75
2017-06-14T00:53:08.753Z,97.13
2017-06-14T00:53:13.059Z,97.23
2017-06-14T00:53:17.247Z,97.13
2017-06-14T00:53:21.683Z,96.94
2017-06-14T00:53:26.115Z,96.75
2017-06-14T00:53:30.541Z,96.75
2017-06-14T00:53:34.965Z,97.04
2017-06-14T00:53:39.387Z,97.42
2017-06-14T00:53:43.693Z,97.33
2017-06-14T00:53:48.112Z,97.42
2017-06-14T00:53:52.423Z,97.61
2017-06-14T00:53:56.737Z,97.42
2017-06-14T00:54:01.155Z,97.42
2017-06-14T00:54:05.884Z,97.42
2017-06-14T00:54:10.069Z,97.42
2017-06-14T00:54:14.505Z,97.42
2017-06-14T00:54:18.959Z,97.8
2017-06-14T00:54:23.388Z,98.09
2017-06-14T00:54:27.819Z,97.71
2017-06-14T00:54:32.237Z,97.9
2017-06-14T00:54:36.659Z,97.9
2017-06-14T00:54:41.090Z,98
2017-06-14T00:54:45.518Z,97.42
2017-06-14T00:54:49.826Z,97.8
2017-06-14T00:54:54.135Z,97.71
2017-06-14T00:54:58.438Z,98
2017-06-14T00:55:02.901Z,97.61
2017-06-14T00:55:07.207Z,97.61
2017-06-14T00:55:11.633Z,98
2017-06-14T00:55:16.058Z,97.71
2017-06-14T00:55:20.479Z,97.8
2017-06-14T00:55:24.909Z,98.28
2017-06-14T00:55:29.334Z,97.8
2017-06-14T00:55:33.762Z,97.9
2017-06-14T00:55:38.184Z,97.8
2017-06-14T00:55:42.608Z,97.8
2017-06-14T00:55:46.684Z,97.61
2017-06-14T00:55:51.113Z,97.8
2017-06-14T00:55:55.532Z,97.8
2017-06-14T00:55:59.834Z,98.09
2017-06-14T00:56:04.260Z,98.09
2017-06-14T00:56:08.328Z,98.19
2017-06-14T00:56:12.750Z,97.8
2017-06-14T00:56:17.074Z,98.47
2017-06-14T00:56:21.505Z,98.57
2017-06-14T00:56:25.926Z,98.28